weather.gov     
National Weather Service

Terminal Aerodrome Forecast
NWS Homepage
This page is being discontinued on March 12, 2014.
The same data is available at this site. Please update your bookmarks.
Thank you, and we apologize for the inconvenience.
Please send an email to SR-SRH.Webmaster@noaa.gov with any concerns.


Current Version
Previous Version:    01  02  03  04  05  06  07  08  09  10  11  12  13  14  15  16  17  18  19  20  21  22  23  24  25  26  27  28  29  30  
   31  32  33  34  35  
[Printable]
822
FTUS41 KPHI 291700
TAFILG
TAF
KILG 291720Z 2918/3018 15007KT P6SM OVC100
     FM300000 15007KT 5SM -SN OVC040
     FM300100 16007KT 2SM -SN OVC020
     FM300300 17008KT P6SM OVC040
     FM300900 22006KT 6SM -SHSN OVC025
     FM301100 29010KT P6SM SCT015 OVC040
     FM301400 31018G32KT P6SM BKN040=


U.S. Dept. of Commerce
NOAA National Weather Service
1325 East West Highway
Silver Spring, MD 20910
E-mail: w-nws.webmaster@noaa.gov
Page last modified: May 16, 2007
NATIONAL WEATHER SERVICE: for Safety, for Work, for Fun - FOR LIFE